createdAt,value
2022-10-04T00:00:41.627Z,100.00
2022-10-04T00:03:32.733Z,100.00
2022-10-04T00:06:01.117Z,100.00
2022-10-04T00:08:33.343Z,100.00
2022-10-04T00:11:18.016Z,100.00
2022-10-04T00:13:52.550Z,100.00
2022-10-04T00:16:31.640Z,100.00
2022-10-04T00:19:26.239Z,100.00
2022-10-04T00:21:56.268Z,100.00
2022-10-04T00:24:24.153Z,100.00
2022-10-04T00:26:56.315Z,100.00
2022-10-04T00:29:38.237Z,100.00
2022-10-04T00:32:10.878Z,100.00
2022-10-04T00:34:47.190Z,100.00
2022-10-04T00:37:15.444Z,100.00
2022-10-04T00:39:44.910Z,100.00
2022-10-04T00:42:38.515Z,100.00
2022-10-04T00:45:25.689Z,100.00
2022-10-04T00:48:01.228Z,100.00
2022-10-04T00:50:41.657Z,100.00
2022-10-04T00:53:20.603Z,100.00
2022-10-04T00:55:51.738Z,100.00
2022-10-04T00:58:24.002Z,100.00
2022-10-04T01:00:53.984Z,100.00
2022-10-04T01:03:45.298Z,100.00
2022-10-04T01:06:13.762Z,100.00
2022-10-04T01:08:56.944Z,100.00
2022-10-04T01:11:29.028Z,100.00
2022-10-04T01:14:04.563Z,100.00
2022-10-04T01:16:36.318Z,100.00
2022-10-04T01:19:28.564Z,100.00
2022-10-04T01:22:07.205Z,100.00
2022-10-04T01:24:36.097Z,100.00
2022-10-04T01:27:03.350Z,100.00
2022-10-04T01:29:32.073Z,100.00
2022-10-04T01:32:00.950Z,100.00
2022-10-04T01:34:30.265Z,100.00
2022-10-04T01:36:59.318Z,100.00
2022-10-04T01:39:28.450Z,100.00
2022-10-04T01:42:05.185Z,100.00
2022-10-04T01:44:44.460Z,100.00
2022-10-04T01:47:27.136Z,100.00
2022-10-04T01:49:58.238Z,100.00
2022-10-04T01:52:42.672Z,100.00
2022-10-04T01:55:17.322Z,100.00
2022-10-04T01:57:52.852Z,100.00
2022-10-04T02:00:21.957Z,100.00
2022-10-04T02:03:01.449Z,100.00
2022-10-04T02:05:33.671Z,100.00
2022-10-04T02:08:12.054Z,100.00
2022-10-04T02:10:43.423Z,100.00
2022-10-04T02:13:14.074Z,100.00
2022-10-04T02:15:40.812Z,100.00
2022-10-04T02:18:13.423Z,100.00
2022-10-04T02:20:41.557Z,100.00
2022-10-04T02:23:08.757Z,100.00
2022-10-04T02:25:36.890Z,100.00
2022-10-04T02:28:08.075Z,100.00
2022-10-04T02:30:38.963Z,100.00
2022-10-04T02:33:06.096Z,100.00
2022-10-04T02:35:50.682Z,100.00
2022-10-04T02:38:25.250Z,100.00
2022-10-04T02:41:17.540Z,100.00
2022-10-04T02:43:50.324Z,100.00
2022-10-04T02:46:40.470Z,100.00
2022-10-04T02:49:21.169Z,100.00
2022-10-04T02:52:05.969Z,100.00
2022-10-04T02:55:04.184Z,100.00
2022-10-04T02:57:33.983Z,100.00
2022-10-04T03:00:09.309Z,100.00
2022-10-04T03:02:35.971Z,100.00
2022-10-04T03:05:13.398Z,100.00
2022-10-04T03:07:40.941Z,100.00
2022-10-04T03:10:12.415Z,100.00
2022-10-04T03:12:42.910Z,100.00
2022-10-04T03:15:12.497Z,100.00
2022-10-04T03:17:46.511Z,100.00
2022-10-04T03:20:16.259Z,100.00
2022-10-04T03:22:47.038Z,100.00
2022-10-04T03:25:28.856Z,100.00
2022-10-04T03:27:59.679Z,100.00
2022-10-04T03:30:26.256Z,100.00
2022-10-04T03:32:53.327Z,100.00
2022-10-04T03:35:32.469Z,100.00
2022-10-04T03:37:59.906Z,100.00
2022-10-04T03:40:30.296Z,100.00
2022-10-04T03:42:58.018Z,100.00
2022-10-04T03:45:28.425Z,100.00
2022-10-04T03:47:58.616Z,100.00
2022-10-04T03:50:28.038Z,100.00
2022-10-04T03:52:58.792Z,100.00
2022-10-04T03:55:32.659Z,100.00
2022-10-04T03:58:00.044Z,100.00
2022-10-04T04:00:26.879Z,100.00
2022-10-04T04:02:58.946Z,100.00
2022-10-04T04:05:31.633Z,100.00
2022-10-04T04:08:10.070Z,100.00
2022-10-04T04:10:43.374Z,100.00
2022-10-04T04:13:27.732Z,100.00
2022-10-04T04:15:55.762Z,100.00
2022-10-04T04:18:24.457Z,100.00
2022-10-04T04:20:54.614Z,100.00
2022-10-04T04:23:28.343Z,100.00
2022-10-04T04:26:00.000Z,100.00
2022-10-04T04:28:30.206Z,100.00
2022-10-04T04:31:05.652Z,100.00
2022-10-04T04:33:54.684Z,100.00
2022-10-04T04:36:21.176Z,100.00
2022-10-04T04:39:06.022Z,100.00
2022-10-04T04:41:36.790Z,100.00
2022-10-04T04:44:04.152Z,100.00
2022-10-04T04:46:31.751Z,100.00
2022-10-04T04:49:04.363Z,100.00
2022-10-04T04:51:32.979Z,100.00
2022-10-04T04:54:02.738Z,100.00
2022-10-04T04:56:30.615Z,100.00
2022-10-04T04:58:59.602Z,100.00
2022-10-04T05:01:48.604Z,100.00
2022-10-04T05:04:19.346Z,100.00
2022-10-04T05:07:04.079Z,100.00
2022-10-04T05:09:40.879Z,100.00
2022-10-04T05:12:18.209Z,100.00
2022-10-04T05:14:50.654Z,100.00
2022-10-04T05:17:24.227Z,100.00
2022-10-04T05:19:52.587Z,100.00
2022-10-04T05:22:22.953Z,100.00
2022-10-04T05:24:56.359Z,100.00
2022-10-04T05:27:37.493Z,100.00
2022-10-04T05:30:28.927Z,100.00
2022-10-04T05:33:05.355Z,100.00
2022-10-04T05:35:46.478Z,100.00
2022-10-04T05:38:54.537Z,100.00
2022-10-04T05:41:43.595Z,100.00
2022-10-04T05:44:35.152Z,100.00
2022-10-04T05:47:05.503Z,100.00
2022-10-04T05:49:43.983Z,100.00
2022-10-04T05:52:33.521Z,100.00
2022-10-04T05:55:12.135Z,100.00
2022-10-04T05:58:08.324Z,100.00
2022-10-04T06:00:52.224Z,100.00
2022-10-04T06:03:26.326Z,100.00
2022-10-04T06:06:00.386Z,100.00
2022-10-04T06:08:35.316Z,100.00
2022-10-04T06:11:23.522Z,100.00
2022-10-04T06:14:24.008Z,100.00
2022-10-04T06:17:02.562Z,100.00
2022-10-04T06:19:44.497Z,100.00
2022-10-04T06:22:19.132Z,100.00
2022-10-04T06:25:03.417Z,100.00
2022-10-04T06:27:41.703Z,100.00
2022-10-04T06:30:19.587Z,100.00
2022-10-04T06:33:11.101Z,100.00
2022-10-04T06:36:03.749Z,100.00
2022-10-04T06:38:51.541Z,100.00
2022-10-04T06:41:42.202Z,100.00
2022-10-04T06:44:52.497Z,100.00
2022-10-04T06:47:27.951Z,100.00
2022-10-04T06:50:37.166Z,100.00
2022-10-04T06:53:22.313Z,100.00
2022-10-04T06:56:27.366Z,100.00
2022-10-04T06:59:04.583Z,100.00
2022-10-04T07:01:33.620Z,100.00
2022-10-04T07:04:18.802Z,100.00
2022-10-04T07:07:25.846Z,100.00
2022-10-04T07:10:18.704Z,100.00
2022-10-04T07:13:04.060Z,100.00
2022-10-04T07:15:45.471Z,100.00
2022-10-04T07:18:21.139Z,100.00
2022-10-04T07:20:49.977Z,100.00
2022-10-04T07:23:28.948Z,100.00
2022-10-04T07:26:00.627Z,100.00
2022-10-04T07:28:58.177Z,100.00
2022-10-04T07:31:30.768Z,100.00
2022-10-04T07:34:04.461Z,100.00
2022-10-04T07:36:50.715Z,100.00
2022-10-04T07:39:31.792Z,100.00
2022-10-04T07:42:15.929Z,100.00
2022-10-04T07:44:48.493Z,100.00
2022-10-04T07:47:27.636Z,100.00
2022-10-04T07:49:55.283Z,100.00
2022-10-04T07:52:33.397Z,100.00
2022-10-04T07:55:28.653Z,100.00
2022-10-04T07:58:23.059Z,100.00
2022-10-04T08:01:18.917Z,100.00
2022-10-04T08:04:30.299Z,100.00
2022-10-04T08:07:02.542Z,99.16
2022-10-04T08:09:35.158Z,98.92
2022-10-04T08:12:19.424Z,99.20
2022-10-04T08:14:56.889Z,99.37
2022-10-04T08:17:26.426Z,99.50
2022-10-04T08:19:58.811Z,99.61
2022-10-04T08:22:59.449Z,99.15
2022-10-04T08:25:52.074Z,99.31
2022-10-04T08:28:59.972Z,98.91
2022-10-04T08:31:56.564Z,98.50
2022-10-04T08:34:57.238Z,98.29
2022-10-04T08:37:44.211Z,94.92
2022-10-04T08:40:13.761Z,91.75
2022-10-04T08:43:01.333Z,89.46
2022-10-04T08:45:56.400Z,89.14
2022-10-04T08:48:50.530Z,86.79
2022-10-04T08:51:58.950Z,83.55
2022-10-04T08:54:40.700Z,84.29
2022-10-04T08:57:34.718Z,84.34
2022-10-04T09:00:43.387Z,85.15
2022-10-04T09:03:31.132Z,84.48
2022-10-04T09:06:41.468Z,82.68
2022-10-04T09:09:10.791Z,79.01
2022-10-04T09:11:56.275Z,79.24
2022-10-04T09:14:56.990Z,78.68
2022-10-04T09:17:29.387Z,78.91
2022-10-04T09:20:38.889Z,75.18
2022-10-04T09:23:31.022Z,77.09
2022-10-04T09:26:32.424Z,77.33
2022-10-04T09:29:20.469Z,76.14
2022-10-04T09:32:05.721Z,76.39
2022-10-04T09:35:20.216Z,77.15
2022-10-04T09:38:15.217Z,75.58
2022-10-04T09:41:19.855Z,73.96
2022-10-04T09:44:01.244Z,74.76
2022-10-04T09:46:32.073Z,73.58
2022-10-04T09:49:09.453Z,72.80
2022-10-04T09:52:01.723Z,70.97
2022-10-04T09:54:34.026Z,72.78
2022-10-04T09:57:09.455Z,72.11
2022-10-04T09:59:53.217Z,69.79
2022-10-04T10:02:34.827Z,71.94
2022-10-04T10:05:22.005Z,68.86
2022-10-04T10:08:00.295Z,70.88
2022-10-04T10:10:50.952Z,71.41
2022-10-04T10:13:45.490Z,70.75
2022-10-04T10:16:29.817Z,70.98
2022-10-04T10:19:22.972Z,70.33
2022-10-04T10:21:54.447Z,69.86
2022-10-04T10:24:36.072Z,70.00
2022-10-04T10:27:47.421Z,70.02
2022-10-04T10:30:24.548Z,68.76
2022-10-04T10:33:24.292Z,68.32
2022-10-04T10:36:02.193Z,67.56
2022-10-04T10:39:15.801Z,68.92
2022-10-04T10:41:56.013Z,68.32
2022-10-04T10:44:33.282Z,69.28
2022-10-04T10:47:12.116Z,67.54
2022-10-04T10:50:03.855Z,67.63
2022-10-04T10:52:42.429Z,67.60
2022-10-04T10:55:19.404Z,66.80
2022-10-04T10:58:04.373Z,66.67
2022-10-04T11:01:08.792Z,67.34
2022-10-04T11:03:50.522Z,67.46
2022-10-04T11:06:53.900Z,67.00
2022-10-04T11:09:31.543Z,67.37
2022-10-04T11:12:13.164Z,68.30
2022-10-04T11:14:58.307Z,68.62
2022-10-04T11:17:56.329Z,68.23
2022-10-04T11:20:53.629Z,68.26
2022-10-04T11:23:59.204Z,68.45
2022-10-04T11:27:07.440Z,69.11
2022-10-04T11:29:45.815Z,67.85
2022-10-04T11:32:50.482Z,67.84
2022-10-04T11:36:04.188Z,67.80
2022-10-04T11:39:07.801Z,66.51
2022-10-04T11:41:47.691Z,67.50
2022-10-04T11:44:35.669Z,68.23
2022-10-04T11:47:28.549Z,68.24
2022-10-04T11:50:10.335Z,67.71
2022-10-04T11:53:27.210Z,66.80
2022-10-04T11:56:17.396Z,65.82
2022-10-04T11:59:10.560Z,67.26
2022-10-04T12:02:01.262Z,67.72
2022-10-04T12:04:30.485Z,66.02
2022-10-04T12:07:47.959Z,65.40
2022-10-04T12:10:43.139Z,64.83
2022-10-04T12:13:18.717Z,65.33
2022-10-04T12:16:27.657Z,65.51
2022-10-04T12:19:29.124Z,65.92
2022-10-04T12:22:23.392Z,66.09
2022-10-04T12:24:57.901Z,64.64
2022-10-04T12:27:42.746Z,64.38
2022-10-04T12:30:56.755Z,64.59
2022-10-04T12:33:31.550Z,64.54
2022-10-04T12:36:35.232Z,66.44
2022-10-04T12:39:28.439Z,64.82
2022-10-04T12:42:16.103Z,65.06
2022-10-04T12:44:58.087Z,66.06
2022-10-04T12:47:51.656Z,66.02
2022-10-04T12:50:44.647Z,65.87
2022-10-04T12:53:35.763Z,64.75
2022-10-04T12:56:32.059Z,63.60
2022-10-04T12:59:34.291Z,64.07
2022-10-04T13:02:35.811Z,62.62
2022-10-04T13:05:26.414Z,63.18
2022-10-04T13:08:11.186Z,63.35
2022-10-04T13:11:01.788Z,63.04
2022-10-04T13:14:14.775Z,62.23
2022-10-04T13:20:03.558Z,63.19
2022-10-04T13:22:56.493Z,63.39
2022-10-04T13:25:28.303Z,63.95
2022-10-04T13:28:05.666Z,63.23
2022-10-04T13:31:12.987Z,62.93
2022-10-04T13:33:49.228Z,62.69
2022-10-04T13:36:51.277Z,62.57
2022-10-04T13:39:43.500Z,63.49
2022-10-04T13:42:12.507Z,63.71
2022-10-04T13:44:56.551Z,62.22
2022-10-04T13:48:04.129Z,62.95
2022-10-04T13:50:54.661Z,62.97
2022-10-04T13:54:34.210Z,63.98
2022-10-04T13:57:21.396Z,63.81
2022-10-04T14:00:02.474Z,62.87
2022-10-04T14:02:34.973Z,63.40
2022-10-04T14:05:15.811Z,62.16
2022-10-04T14:08:21.492Z,63.05
2022-10-04T14:11:09.696Z,63.19
2022-10-04T14:13:43.058Z,63.33
2022-10-04T14:16:45.568Z,61.70
2022-10-04T14:19:48.725Z,63.61
2022-10-04T14:22:24.039Z,63.18
2022-10-04T14:25:21.768Z,64.30
2022-10-04T14:28:10.067Z,63.66
2022-10-04T14:31:08.089Z,62.83
2022-10-04T14:33:50.557Z,63.38
2022-10-04T14:36:46.437Z,65.30
2022-10-04T14:39:32.327Z,65.21
2022-10-04T14:42:01.801Z,63.91
2022-10-04T14:44:48.139Z,63.71
2022-10-04T14:47:36.262Z,63.32
2022-10-04T14:50:38.920Z,63.63
2022-10-04T14:53:23.630Z,63.76
2022-10-04T14:56:06.797Z,63.48
2022-10-04T14:58:57.819Z,64.54
2022-10-04T15:01:29.487Z,64.43
2022-10-04T15:04:14.370Z,63.66
2022-10-04T15:06:48.482Z,63.47
2022-10-04T15:09:43.117Z,64.52
2022-10-04T15:12:51.913Z,65.90
2022-10-04T15:15:39.629Z,65.98
2022-10-04T15:18:26.386Z,65.82
2022-10-04T15:21:07.415Z,66.10
2022-10-04T15:23:48.580Z,66.20
2022-10-04T15:26:23.805Z,66.39
2022-10-04T15:28:50.287Z,66.21
2022-10-04T15:31:45.884Z,67.40
2022-10-04T15:34:48.837Z,67.73
2022-10-04T15:37:44.109Z,69.06
2022-10-04T15:40:35.349Z,67.58
2022-10-04T15:43:27.051Z,64.42
2022-10-04T15:46:06.202Z,63.72
2022-10-04T15:49:04.006Z,64.48
2022-10-04T15:52:03.350Z,64.88
2022-10-04T15:54:41.966Z,65.54
2022-10-04T15:57:23.448Z,65.98
2022-10-04T16:00:05.219Z,65.85
2022-10-04T16:02:55.720Z,65.60
2022-10-04T16:05:46.118Z,66.73
2022-10-04T16:08:31.866Z,67.16
2022-10-04T16:11:23.994Z,69.20
2022-10-04T16:14:19.934Z,69.47
2022-10-04T16:17:09.753Z,68.87
2022-10-04T16:19:48.176Z,71.44
2022-10-04T16:22:18.620Z,72.13
2022-10-04T16:25:09.588Z,69.91
2022-10-04T16:27:49.571Z,70.83
2022-10-04T16:30:27.796Z,70.72
2022-10-04T16:33:22.452Z,70.62
2022-10-04T16:36:18.482Z,71.44
2022-10-04T16:39:07.679Z,74.56
2022-10-04T16:41:41.289Z,75.06
2022-10-04T16:44:37.699Z,75.08
2022-10-04T16:47:50.742Z,75.24
2022-10-04T16:50:55.696Z,76.35
2022-10-04T16:53:37.293Z,77.79
2022-10-04T16:56:11.989Z,76.83
2022-10-04T16:58:48.976Z,74.50
2022-10-04T17:01:25.728Z,75.49
2022-10-04T17:04:04.295Z,76.34
2022-10-04T17:06:56.365Z,77.57
2022-10-04T17:09:49.497Z,77.33
2022-10-04T17:12:24.090Z,77.54
2022-10-04T17:15:09.120Z,77.21
2022-10-04T17:17:35.505Z,78.07
2022-10-04T17:20:24.149Z,77.72
2022-10-04T17:23:03.100Z,77.23
2022-10-04T17:25:43.141Z,76.97
2022-10-04T17:28:26.171Z,77.31
2022-10-04T17:31:07.985Z,78.19
2022-10-04T17:34:12.732Z,79.91
2022-10-04T17:36:43.952Z,80.40
2022-10-04T17:39:33.125Z,80.06
2022-10-04T17:42:21.274Z,78.55
2022-10-04T17:44:47.718Z,77.86
2022-10-04T17:47:23.600Z,76.84
2022-10-04T17:50:31.368Z,76.60
2022-10-04T17:53:21.895Z,76.22
2022-10-04T17:55:56.048Z,76.14
2022-10-04T17:58:30.454Z,76.21
2022-10-04T18:01:00.050Z,75.78
2022-10-04T18:03:33.073Z,75.83
2022-10-04T18:06:11.012Z,75.35
2022-10-04T18:08:52.083Z,75.03
2022-10-04T18:11:22.903Z,75.38
2022-10-04T18:13:58.589Z,74.69
2022-10-04T18:16:32.624Z,74.87
2022-10-04T18:19:40.517Z,75.06
2022-10-04T18:22:18.343Z,74.87
2022-10-04T18:24:47.137Z,74.91
2022-10-04T18:27:21.081Z,74.92
2022-10-04T18:30:14.644Z,74.76
2022-10-04T18:32:48.654Z,74.68
2022-10-04T18:35:28.247Z,74.75
2022-10-04T18:38:05.221Z,74.75
2022-10-04T18:40:41.637Z,74.66
2022-10-04T18:43:27.212Z,74.65
2022-10-04T18:46:14.269Z,74.81
2022-10-04T18:48:54.555Z,74.87
2022-10-04T18:52:02.909Z,74.65
2022-10-04T18:55:00.133Z,74.79
2022-10-04T18:58:06.347Z,75.08
2022-10-04T19:00:59.754Z,75.04
2022-10-04T19:03:40.227Z,75.42
2022-10-04T19:06:19.363Z,75.46
2022-10-04T19:09:07.158Z,75.20
2022-10-04T19:11:42.670Z,74.79
2022-10-04T19:14:44.698Z,74.29
2022-10-04T19:17:52.464Z,74.06
2022-10-04T19:20:34.077Z,74.25
2022-10-04T19:23:00.517Z,74.16
2022-10-04T19:25:39.093Z,74.27
2022-10-04T19:28:20.977Z,74.36
2022-10-04T19:31:02.852Z,74.03
2022-10-04T19:33:50.878Z,74.07
2022-10-04T19:36:36.582Z,74.44
2022-10-04T19:39:12.462Z,74.74
2022-10-04T19:41:59.915Z,75.02
2022-10-04T19:44:37.063Z,74.89
2022-10-04T19:47:42.312Z,74.50
2022-10-04T19:50:23.713Z,74.47
2022-10-04T19:53:09.831Z,74.59
2022-10-04T19:55:52.028Z,72.69
2022-10-04T19:58:24.264Z,72.33
2022-10-04T20:00:51.298Z,71.84
2022-10-04T20:03:17.863Z,71.54
2022-10-04T20:05:50.246Z,71.81
2022-10-04T20:09:01.487Z,71.82
2022-10-04T20:11:49.610Z,71.75
2022-10-04T20:14:16.839Z,71.93
2022-10-04T20:16:49.878Z,70.69
2022-10-04T20:19:28.673Z,71.00
2022-10-04T20:22:07.461Z,71.37
2022-10-04T20:24:36.737Z,71.40
2022-10-04T20:27:22.079Z,71.52
2022-10-04T20:29:51.706Z,72.05
2022-10-04T20:32:27.066Z,72.32
2022-10-04T20:34:55.082Z,72.52
2022-10-04T20:37:21.899Z,72.85
2022-10-04T20:39:49.665Z,72.83
2022-10-04T20:42:34.044Z,72.41
2022-10-04T20:45:09.401Z,72.15
2022-10-04T20:47:40.377Z,72.16
2022-10-04T20:50:09.881Z,72.55
2022-10-04T20:52:36.948Z,72.33
2022-10-04T20:55:17.248Z,71.96
2022-10-04T20:57:43.710Z,71.87
2022-10-04T21:00:18.866Z,71.33
2022-10-04T21:02:45.562Z,71.36
2022-10-04T21:05:25.980Z,71.55
2022-10-04T21:08:11.612Z,71.88
2022-10-04T21:10:38.101Z,71.81
2022-10-04T21:13:04.564Z,72.20
2022-10-04T21:15:31.079Z,72.09
2022-10-04T21:18:03.831Z,71.87
2022-10-04T21:20:53.633Z,72.10
2022-10-04T21:23:29.786Z,72.16
2022-10-04T21:26:22.159Z,72.30
2022-10-04T21:28:53.488Z,71.70
2022-10-04T21:31:20.101Z,71.71
2022-10-04T21:33:46.618Z,71.63
2022-10-04T21:36:13.051Z,71.54
2022-10-04T21:38:39.618Z,71.30
2022-10-04T21:41:06.568Z,71.48
2022-10-04T21:43:33.435Z,71.97
2022-10-04T21:46:00.243Z,72.10
2022-10-04T21:48:27.503Z,72.60
2022-10-04T21:50:54.804Z,72.86
2022-10-04T21:53:21.855Z,73.24
2022-10-04T21:55:48.669Z,73.25
2022-10-04T21:58:18.493Z,72.93
2022-10-04T22:00:44.960Z,72.97
2022-10-04T22:03:11.655Z,73.26
2022-10-04T22:05:38.098Z,73.23
2022-10-04T22:08:04.673Z,73.46
2022-10-04T22:10:31.367Z,73.56
2022-10-04T22:12:57.909Z,73.86
2022-10-04T22:15:26.311Z,74.43
2022-10-04T22:17:55.891Z,74.60
2022-10-04T22:20:23.640Z,75.12
2022-10-04T22:22:50.226Z,75.09
2022-10-04T22:25:19.399Z,75.50
2022-10-04T22:27:46.820Z,75.83
2022-10-04T22:30:21.559Z,76.71
2022-10-04T22:32:48.636Z,76.85
2022-10-04T22:35:18.835Z,77.48
2022-10-04T22:37:46.620Z,77.72
2022-10-04T22:40:23.254Z,77.88
2022-10-04T22:42:52.641Z,78.06
2022-10-04T22:45:27.547Z,78.42
2022-10-04T22:47:57.543Z,78.41
2022-10-04T22:50:40.851Z,78.55
2022-10-04T22:53:22.196Z,78.79
2022-10-04T22:55:49.954Z,79.17
2022-10-04T22:58:16.986Z,79.38
2022-10-04T23:00:45.006Z,79.17
2022-10-04T23:03:32.599Z,79.31
2022-10-04T23:06:01.152Z,79.66
2022-10-04T23:08:28.992Z,79.66
2022-10-04T23:10:57.581Z,79.78
2022-10-04T23:13:26.015Z,79.49
2022-10-04T23:15:58.923Z,79.57
2022-10-04T23:18:28.292Z,79.67
2022-10-04T23:20:59.474Z,79.32
2022-10-04T23:23:28.097Z,79.14
2022-10-04T23:25:55.191Z,79.56
2022-10-04T23:28:23.476Z,79.46
2022-10-04T23:31:02.221Z,79.71
2022-10-04T23:33:28.700Z,79.69
2022-10-04T23:35:55.322Z,80.10
2022-10-04T23:38:23.222Z,80.14
2022-10-04T23:40:49.754Z,80.35
2022-10-04T23:43:25.345Z,80.33
2022-10-04T23:45:53.860Z,80.66
2022-10-04T23:48:25.391Z,80.59
2022-10-04T23:50:54.424Z,80.48
2022-10-04T23:53:27.706Z,80.75
2022-10-04T23:55:55.005Z,80.72
2022-10-04T23:58:24.228Z,80.59
